Time;durP1;ratioP1;P1;durP2;ratioP2;P2;SDS_P1;SDS_P2;PMS_P1;PMS_P2;Temp;Humidity;BMP_temperature;BMP_pressure;BME280_temperature;BME280_humidity;BME280_pressure;Samples;Min_cycle;Max_cycle;Signal;HPM_P1;HPM_P2
2024/04/05 00:00:48;;;;;;;30.00;20.30;;;;;;;;;;5033375;28;20438;-81
2024/04/05 00:03:15;;;;;;;23.60;21.23;;;;;;;;;;5034024;28;20505;-81
2024/04/05 00:05:41;;;;;;;22.53;20.10;;;;;;;;;;5034108;28;20531;-81
2024/04/05 00:08:08;;;;;;;21.90;19.80;;;;;;;;;;5027337;28;20442;-81
2024/04/05 00:10:35;;;;;;;22.80;19.60;;;;;;;;;;5033744;28;20444;-81
2024/04/05 00:13:02;;;;;;;23.87;20.57;;;;;;;;;;5033551;28;20491;-81
2024/04/05 00:15:28;;;;;;;23.17;20.30;;;;;;;;;;5033672;28;20510;-81
2024/04/05 00:17:55;;;;;;;25.93;21.20;;;;;;;;;;5034181;28;20448;-81
2024/04/05 00:20:21;;;;;;;24.00;21.83;;;;;;;;;;5033722;28;20494;-80
2024/04/05 00:22:48;;;;;;;21.10;19.10;;;;;;;;;;5033421;28;20467;-81
2024/04/05 00:25:16;;;;;;;21.30;19.60;;;;;;;;;;5033125;28;20486;-79
2024/04/05 00:27:44;;;;;;;22.27;20.03;;;;;;;;;;5034174;28;20453;-81
2024/04/05 00:30:10;;;;;;;24.90;20.10;;;;;;;;;;5025212;28;21323;-80
2024/04/05 00:32:37;;;;;;;21.87;19.80;;;;;;;;;;5013954;28;20815;-79
2024/04/05 00:35:04;;;;;;;23.63;20.67;;;;;;;;;;5014305;28;20431;-80
2024/04/05 00:37:31;;;;;;;21.10;19.30;;;;;;;;;;5013712;28;20459;-79
2024/04/05 00:39:57;;;;;;;22.23;20.00;;;;;;;;;;5013038;28;20442;-80
2024/04/05 00:42:24;;;;;;;23.30;21.00;;;;;;;;;;5013311;28;20500;-80
2024/04/05 00:44:51;;;;;;;24.37;22.37;;;;;;;;;;5016426;28;20483;-80
2024/04/05 00:47:18;;;;;;;23.03;20.60;;;;;;;;;;5025451;28;20487;-79
2024/04/05 00:49:44;;;;;;;22.60;20.60;;;;;;;;;;5013465;28;20424;-80
2024/04/05 00:52:12;;;;;;;24.97;19.87;;;;;;;;;;5013309;28;20484;-80
2024/04/05 00:54:38;;;;;;;21.03;19.13;;;;;;;;;;5016579;28;20518;-78
2024/04/05 00:57:05;;;;;;;21.33;19.50;;;;;;;;;;5017460;28;20452;-80
2024/04/05 00:59:32;;;;;;;21.83;19.50;;;;;;;;;;5016423;28;20505;-80
2024/04/05 01:02:02;;;;;;;20.27;17.93;;;;;;;;;;5017198;28;20470;-79
2024/04/05 01:04:28;;;;;;;19.60;17.70;;;;;;;;;;5016978;28;20439;-79
2024/04/05 01:06:55;;;;;;;22.67;18.80;;;;;;;;;;5016990;28;20433;-80
2024/04/05 01:09:21;;;;;;;21.33;17.60;;;;;;;;;;5017247;28;20444;-80
2024/04/05 01:11:58;;;;;;;19.30;17.50;;;;;;;;;;5021786;28;20486;-80
2024/04/05 01:14:24;;;;;;;22.03;18.10;;;;;;;;;;5019495;28;20456;-79
2024/04/05 01:16:51;;;;;;;24.73;18.80;;;;;;;;;;5033379;28;20454;-81
2024/04/05 01:19:19;;;;;;;20.00;18.30;;;;;;;;;;5036435;28;20457;-79
2024/04/05 01:21:48;;;;;;;20.57;18.40;;;;;;;;;;5046268;28;20471;-80
2024/04/05 01:24:16;;;;;;;21.87;19.90;;;;;;;;;;5057353;28;20446;-81
2024/04/05 01:26:43;;;;;;;20.90;18.90;;;;;;;;;;5057065;28;20534;-80
2024/04/05 01:29:09;;;;;;;22.90;18.33;;;;;;;;;;5056029;28;20423;-81
2024/04/05 01:31:36;;;;;;;20.73;18.37;;;;;;;;;;5056673;28;20515;-79
2024/04/05 01:34:02;;;;;;;19.93;18.10;;;;;;;;;;5056743;28;20425;-81
2024/04/05 01:36:29;;;;;;;20.30;18.50;;;;;;;;;;5055890;28;20513;-80
2024/04/05 01:38:55;;;;;;;19.70;18.10;;;;;;;;;;5055676;28;20406;-79
2024/04/05 01:41:24;;;;;;;20.47;18.10;;;;;;;;;;5056446;28;20481;-80
2024/04/05 01:43:50;;;;;;;21.07;19.00;;;;;;;;;;5045348;28;20510;-79
2024/04/05 01:46:17;;;;;;;20.10;18.10;;;;;;;;;;5037225;28;20455;-81
2024/04/05 01:48:43;;;;;;;19.80;17.97;;;;;;;;;;5038194;28;20446;-80
2024/04/05 01:51:10;;;;;;;21.47;19.00;;;;;;;;;;5036447;28;20546;-80
2024/04/05 01:53:36;;;;;;;21.00;19.10;;;;;;;;;;5022657;28;20496;-81
2024/04/05 01:56:03;;;;;;;20.27;18.27;;;;;;;;;;5025243;28;20489;-80
2024/04/05 01:58:31;;;;;;;19.80;18.13;;;;;;;;;;5017374;28;20538;-80
2024/04/05 02:01:01;;;;;;;20.67;18.67;;;;;;;;;;5035943;28;20471;-80
2024/04/05 02:03:28;;;;;;;20.53;18.70;;;;;;;;;;5035747;28;20489;-80
2024/04/05 02:05:55;;;;;;;19.37;17.73;;;;;;;;;;5035112;28;20467;-80
2024/04/05 02:08:21;;;;;;;30.50;20.07;;;;;;;;;;5034699;28;20513;-82
2024/04/05 02:10:48;;;;;;;20.57;18.57;;;;;;;;;;5034908;28;20547;-80
2024/04/05 02:13:14;;;;;;;26.90;19.50;;;;;;;;;;5035124;28;20541;-80
2024/04/05 02:15:45;;;;;;;24.43;19.20;;;;;;;;;;5034986;28;20761;-80
2024/04/05 02:18:11;;;;;;;21.53;19.00;;;;;;;;;;5034299;28;20909;-81
2024/04/05 02:20:40;;;;;;;22.37;19.87;;;;;;;;;;5035095;28;20452;-79
2024/04/05 02:23:06;;;;;;;21.10;19.00;;;;;;;;;;5035348;28;20466;-80
2024/04/05 02:25:33;;;;;;;20.43;18.43;;;;;;;;;;5035376;28;20451;-80
2024/04/05 02:27:59;;;;;;;21.00;19.00;;;;;;;;;;5035419;28;20501;-81
2024/04/05 02:30:26;;;;;;;29.60;19.90;;;;;;;;;;5034786;28;20444;-80
2024/04/05 02:32:54;;;;;;;28.80;20.43;;;;;;;;;;5034015;28;20537;-80
2024/04/05 02:35:21;;;;;;;20.53;18.40;;;;;;;;;;5035052;28;20527;-80
2024/04/05 02:37:47;;;;;;;22.50;19.33;;;;;;;;;;5034679;28;20491;-80
2024/04/05 02:40:14;;;;;;;20.90;18.80;;;;;;;;;;5034263;28;20461;-80
2024/04/05 02:42:40;;;;;;;18.93;17.40;;;;;;;;;;5034589;28;20492;-80
2024/04/05 02:45:07;;;;;;;20.40;18.30;;;;;;;;;;5034487;28;20817;-80
2024/04/05 02:47:33;;;;;;;23.20;19.90;;;;;;;;;;5034344;28;20430;-81
2024/04/05 02:50:02;;;;;;;21.43;18.80;;;;;;;;;;5021184;28;20462;-79
2024/04/05 02:52:28;;;;;;;20.20;18.27;;;;;;;;;;5034120;28;20903;-81
2024/04/05 02:54:55;;;;;;;19.73;17.73;;;;;;;;;;5034361;28;20462;-80
2024/04/05 02:57:21;;;;;;;21.83;17.97;;;;;;;;;;5034709;28;20457;-79
2024/04/05 02:59:48;;;;;;;19.50;17.80;;;;;;;;;;5033720;28;20444;-78
2024/04/05 03:02:14;;;;;;;20.23;18.10;;;;;;;;;;5033143;28;21033;-79
2024/04/05 03:04:41;;;;;;;20.47;17.93;;;;;;;;;;5034687;28;20440;-81
2024/04/05 03:07:09;;;;;;;20.50;18.43;;;;;;;;;;5034358;28;20436;-80
2024/04/05 03:09:37;;;;;;;20.03;18.03;;;;;;;;;;5034324;28;20462;-80
2024/04/05 03:12:03;;;;;;;21.23;19.20;;;;;;;;;;5033686;28;20480;-81
2024/04/05 03:14:30;;;;;;;26.77;18.30;;;;;;;;;;5034700;28;20479;-79
2024/04/05 03:16:56;;;;;;;19.53;17.93;;;;;;;;;;5033888;28;20452;-80
2024/04/05 03:19:23;;;;;;;21.63;18.33;;;;;;;;;;5034208;28;20578;-80
2024/04/05 03:21:49;;;;;;;20.27;18.10;;;;;;;;;;5034320;28;20591;-81
2024/04/05 03:24:18;;;;;;;19.63;18.00;;;;;;;;;;5034979;28;20817;-80
2024/04/05 03:26:44;;;;;;;23.77;18.53;;;;;;;;;;5034597;28;20499;-81
2024/04/05 03:29:11;;;;;;;20.00;17.70;;;;;;;;;;5033896;28;20464;-80
2024/04/05 03:31:37;;;;;;;19.87;18.10;;;;;;;;;;5034439;28;20470;-80
2024/04/05 03:34:04;;;;;;;19.87;18.10;;;;;;;;;;5034431;28;20557;-81
2024/04/05 03:36:30;;;;;;;20.50;18.53;;;;;;;;;;5034291;28;20444;-81
2024/04/05 03:39:00;;;;;;;19.50;17.97;;;;;;;;;;5033786;28;20474;-81
2024/04/05 03:41:29;;;;;;;19.87;17.40;;;;;;;;;;5033799;28;20506;-80
2024/04/05 03:43:55;;;;;;;21.03;18.83;;;;;;;;;;5034463;28;21089;-80
2024/04/05 03:46:22;;;;;;;19.47;18.07;;;;;;;;;;5034102;28;20885;-80
2024/04/05 03:48:49;;;;;;;18.83;17.23;;;;;;;;;;5033597;28;20449;-79
2024/04/05 03:51:15;;;;;;;19.83;18.00;;;;;;;;;;5034240;28;20972;-80
2024/04/05 03:53:42;;;;;;;19.50;17.63;;;;;;;;;;5034201;28;20537;-81
2024/04/05 03:56:08;;;;;;;20.57;18.90;;;;;;;;;;5034017;28;20484;-80
2024/04/05 03:58:37;;;;;;;19.23;17.73;;;;;;;;;;5033681;28;20451;-80
2024/04/05 04:01:03;;;;;;;19.43;17.77;;;;;;;;;;5034576;28;20489;-80
2024/04/05 04:03:30;;;;;;;21.97;20.10;;;;;;;;;;5033838;28;20438;-80
2024/04/05 04:05:57;;;;;;;19.30;17.87;;;;;;;;;;5033584;28;20456;-81
2024/04/05 04:08:24;;;;;;;19.67;18.20;;;;;;;;;;5033661;28;20462;-80
2024/04/05 04:10:51;;;;;;;20.33;18.60;;;;;;;;;;5033947;28;20824;-81
2024/04/05 04:13:19;;;;;;;20.23;18.70;;;;;;;;;;5033388;28;20549;-82
2024/04/05 04:15:46;;;;;;;20.80;19.20;;;;;;;;;;5033252;28;21006;-81
2024/04/05 04:18:13;;;;;;;18.83;17.53;;;;;;;;;;5033139;28;20462;-81
2024/04/05 04:20:40;;;;;;;18.80;17.60;;;;;;;;;;5033504;28;20455;-80
2024/04/05 04:23:07;;;;;;;21.07;17.60;;;;;;;;;;5033801;28;20522;-80
2024/04/05 04:25:33;;;;;;;19.53;18.13;;;;;;;;;;5033529;28;20849;-80
2024/04/05 04:28:01;;;;;;;20.80;19.20;;;;;;;;;;5034451;28;20448;-81
2024/04/05 04:30:29;;;;;;;24.73;22.67;;;;;;;;;;5036914;28;20469;-79
2024/04/05 04:32:57;;;;;;;19.53;17.90;;;;;;;;;;5036421;28;20491;-81
2024/04/05 04:35:23;;;;;;;19.50;18.20;;;;;;;;;;5037676;28;20498;-81
2024/04/05 04:37:52;;;;;;;19.50;18.07;;;;;;;;;;5037502;28;20445;-81
2024/04/05 04:40:18;;;;;;;21.27;19.60;;;;;;;;;;5036827;28;20460;-80
2024/04/05 04:42:45;;;;;;;22.50;20.53;;;;;;;;;;5037538;28;20441;-81
2024/04/05 04:45:11;;;;;;;22.17;20.27;;;;;;;;;;5037747;28;21239;-80
2024/04/05 04:47:38;;;;;;;31.27;28.47;;;;;;;;;;5037834;28;20524;-81
2024/04/05 04:50:06;;;;;;;20.23;18.17;;;;;;;;;;5037150;28;20431;-80
2024/04/05 04:52:33;;;;;;;20.60;18.70;;;;;;;;;;5036039;28;20485;-77
2024/04/05 04:54:59;;;;;;;20.03;18.20;;;;;;;;;;5033926;28;20438;-77
2024/04/05 04:57:26;;;;;;;18.77;17.50;;;;;;;;;;5034030;28;20939;-77
2024/04/05 04:59:52;;;;;;;18.67;17.37;;;;;;;;;;5033424;28;20451;-77
2024/04/05 05:02:19;;;;;;;19.03;17.93;;;;;;;;;;5033823;28;20442;-77
2024/04/05 05:04:47;;;;;;;20.53;18.80;;;;;;;;;;5034229;28;21104;-77
2024/04/05 05:07:15;;;;;;;20.57;18.77;;;;;;;;;;5034076;28;20451;-77
2024/04/05 05:09:41;;;;;;;18.57;17.00;;;;;;;;;;5033458;28;20444;-78
2024/04/05 05:12:08;;;;;;;20.57;18.60;;;;;;;;;;5033340;28;20467;-77
2024/04/05 05:14:34;;;;;;;19.83;18.20;;;;;;;;;;5033838;28;20833;-77
2024/04/05 05:17:01;;;;;;;19.70;17.73;;;;;;;;;;5033989;28;20804;-77
2024/04/05 05:19:27;;;;;;;20.10;18.57;;;;;;;;;;5033157;28;20448;-77
2024/04/05 05:21:54;;;;;;;19.80;18.30;;;;;;;;;;5033345;28;20898;-77
2024/04/05 05:24:21;;;;;;;20.73;19.00;;;;;;;;;;5031830;28;20588;-77
2024/04/05 05:26:48;;;;;;;20.47;18.53;;;;;;;;;;5014171;28;20910;-77
2024/04/05 05:29:14;;;;;;;19.33;17.80;;;;;;;;;;5013555;28;20817;-77
2024/04/05 05:31:41;;;;;;;19.43;18.17;;;;;;;;;;5014551;28;21013;-77
2024/04/05 05:34:07;;;;;;;20.30;18.40;;;;;;;;;;5032697;28;20597;-79
2024/04/05 05:36:34;;;;;;;19.67;17.90;;;;;;;;;;5032394;28;21047;-77
2024/04/05 05:39:01;;;;;;;19.33;18.07;;;;;;;;;;5032949;28;20497;-76
2024/04/05 05:41:29;;;;;;;22.63;18.10;;;;;;;;;;5032964;28;20878;-76
2024/04/05 05:43:55;;;;;;;20.60;18.80;;;;;;;;;;5032597;28;21004;-76
2024/04/05 05:46:22;;;;;;;19.97;18.47;;;;;;;;;;5032042;28;20566;-76
2024/04/05 05:48:49;;;;;;;20.07;18.30;;;;;;;;;;5032478;28;20443;-76
2024/04/05 05:51:15;;;;;;;20.73;18.77;;;;;;;;;;5032584;28;20469;-76
2024/04/05 05:53:42;;;;;;;19.53;18.23;;;;;;;;;;5032391;28;20469;-76
2024/04/05 05:56:08;;;;;;;19.33;17.90;;;;;;;;;;5033063;28;20479;-77
2024/04/05 05:58:37;;;;;;;20.13;18.23;;;;;;;;;;5031674;28;20467;-82
2024/04/05 06:01:06;;;;;;;21.10;19.00;;;;;;;;;;5033046;28;20480;-76
2024/04/05 06:03:33;;;;;;;21.03;19.23;;;;;;;;;;5032835;28;20452;-76
2024/04/05 06:06:02;;;;;;;20.50;19.03;;;;;;;;;;5032207;28;20456;-76
2024/04/05 06:08:29;;;;;;;20.07;18.50;;;;;;;;;;5031142;28;20480;-76
2024/04/05 06:10:55;;;;;;;20.17;18.27;;;;;;;;;;5032952;28;20474;-78
2024/04/05 06:13:23;;;;;;;20.13;18.43;;;;;;;;;;5032414;28;20571;-76
2024/04/05 06:15:54;;;;;;;20.93;19.03;;;;;;;;;;5027393;28;20958;-76
2024/04/05 06:18:21;;;;;;;23.83;21.60;;;;;;;;;;5031209;28;20494;-75
2024/04/05 06:20:52;;;;;;;21.43;19.43;;;;;;;;;;5031854;28;20448;-76
2024/04/05 06:23:19;;;;;;;20.87;18.90;;;;;;;;;;5031821;28;20425;-76
2024/04/05 06:25:50;;;;;;;21.20;19.40;;;;;;;;;;5031984;28;20962;-76
2024/04/05 06:28:18;;;;;;;21.50;19.83;;;;;;;;;;5031283;28;20494;-77
2024/04/05 06:30:44;;;;;;;21.47;19.90;;;;;;;;;;5031812;28;20451;-76
2024/04/05 06:33:12;;;;;;;21.10;19.27;;;;;;;;;;5031656;28;20837;-77
2024/04/05 06:35:38;;;;;;;24.93;22.90;;;;;;;;;;5031799;28;20830;-76
2024/04/05 06:38:05;;;;;;;22.73;20.87;;;;;;;;;;5030698;28;20447;-76
2024/04/05 06:40:31;;;;;;;21.53;20.03;;;;;;;;;;5031428;28;20558;-75
2024/04/05 06:42:58;;;;;;;22.13;20.17;;;;;;;;;;5031728;28;20422;-76
2024/04/05 06:45:24;;;;;;;21.10;19.33;;;;;;;;;;5031480;28;20518;-75
2024/04/05 06:47:51;;;;;;;23.17;20.80;;;;;;;;;;5031221;28;20435;-75
2024/04/05 06:50:19;;;;;;;21.93;20.20;;;;;;;;;;5029877;28;20453;-76
2024/04/05 06:52:46;;;;;;;24.00;21.90;;;;;;;;;;5030991;28;20609;-75
2024/04/05 06:55:13;;;;;;;25.10;23.10;;;;;;;;;;5031353;28;20458;-75
2024/04/05 06:57:40;;;;;;;23.60;21.57;;;;;;;;;;5031702;28;20538;-77
2024/04/05 07:00:10;;;;;;;22.87;20.67;;;;;;;;;;5030925;28;20518;-76
2024/04/05 07:02:37;;;;;;;22.27;20.77;;;;;;;;;;5031178;28;20461;-76
2024/04/05 07:05:03;;;;;;;28.13;25.77;;;;;;;;;;5031066;28;20437;-76
2024/04/05 07:07:32;;;;;;;26.60;24.30;;;;;;;;;;5031195;28;20552;-77
2024/04/05 07:09:58;;;;;;;25.57;23.67;;;;;;;;;;5030712;28;20454;-76
2024/04/05 07:12:25;;;;;;;26.33;24.03;;;;;;;;;;5030505;28;20472;-76
2024/04/05 07:14:51;;;;;;;25.93;23.87;;;;;;;;;;5031088;28;20464;-76
2024/04/05 07:17:18;;;;;;;25.43;22.83;;;;;;;;;;5030815;28;20999;-76
2024/04/05 07:19:47;;;;;;;26.57;24.40;;;;;;;;;;5030208;28;20449;-76
2024/04/05 07:22:15;;;;;;;24.43;22.43;;;;;;;;;;5030600;28;20957;-75
2024/04/05 07:24:43;;;;;;;26.43;24.33;;;;;;;;;;5030206;28;20450;-75
2024/04/05 07:27:10;;;;;;;23.83;22.23;;;;;;;;;;5030273;28;20456;-74
2024/04/05 07:29:36;;;;;;;24.87;22.10;;;;;;;;;;5029999;28;20481;-74
2024/04/05 07:32:04;;;;;;;23.33;21.57;;;;;;;;;;5030882;28;20577;-73
2024/04/05 07:34:30;;;;;;;22.43;20.60;;;;;;;;;;5031100;28;20464;-74
2024/04/05 07:36:57;;;;;;;22.63;20.73;;;;;;;;;;5031396;28;20463;-74
2024/04/05 07:39:23;;;;;;;22.00;20.50;;;;;;;;;;5030390;28;20449;-73
2024/04/05 07:41:52;;;;;;;22.87;20.70;;;;;;;;;;5030572;28;20480;-74
2024/04/05 07:44:19;;;;;;;22.60;20.90;;;;;;;;;;5030656;28;20499;-74
2024/04/05 07:46:46;;;;;;;22.47;20.57;;;;;;;;;;5030657;28;20895;-74
2024/04/05 07:49:12;;;;;;;21.10;19.20;;;;;;;;;;5030057;28;20505;-74
2024/04/05 07:51:39;;;;;;;20.17;18.83;;;;;;;;;;5029804;28;20483;-74
2024/04/05 07:54:05;;;;;;;20.20;18.80;;;;;;;;;;5030027;28;20484;-73
2024/04/05 07:56:32;;;;;;;20.93;19.43;;;;;;;;;;5030322;28;20448;-74
2024/04/05 07:59:00;;;;;;;20.57;18.97;;;;;;;;;;5030114;28;20458;-75
2024/04/05 08:01:27;;;;;;;20.30;19.00;;;;;;;;;;5030194;28;20559;-74
2024/04/05 08:03:53;;;;;;;20.07;18.47;;;;;;;;;;5030576;28;20809;-75
2024/04/05 08:06:20;;;;;;;20.57;18.87;;;;;;;;;;5030426;28;20448;-74
2024/04/05 08:08:46;;;;;;;18.93;17.73;;;;;;;;;;5029601;28;20475;-74
2024/04/05 08:11:13;;;;;;;18.97;17.70;;;;;;;;;;5030150;28;20468;-74
2024/04/05 08:13:39;;;;;;;18.40;17.20;;;;;;;;;;5030138;28;20554;-74
2024/04/05 08:16:08;;;;;;;18.37;17.13;;;;;;;;;;5030394;28;20452;-74
2024/04/05 08:18:34;;;;;;;20.03;18.40;;;;;;;;;;5029866;28;20459;-74
2024/04/05 08:21:04;;;;;;;18.53;17.33;;;;;;;;;;5029649;28;20502;-73
2024/04/05 08:23:30;;;;;;;18.57;17.23;;;;;;;;;;5029880;28;20905;-74
2024/04/05 08:25:57;;;;;;;19.70;18.30;;;;;;;;;;5030036;28;20510;-74
2024/04/05 08:28:23;;;;;;;18.13;16.93;;;;;;;;;;5029723;28;20468;-74
2024/04/05 08:30:51;;;;;;;18.50;17.17;;;;;;;;;;5029892;28;20506;-75
2024/04/05 08:33:19;;;;;;;17.83;16.73;;;;;;;;;;5030184;28;20488;-74
2024/04/05 08:35:51;;;;;;;18.20;17.00;;;;;;;;;;5030284;28;20474;-75
2024/04/05 08:38:18;;;;;;;18.80;17.50;;;;;;;;;;5029354;28;20487;-73
2024/04/05 08:40:45;;;;;;;18.00;17.00;;;;;;;;;;5029812;28;20480;-79
2024/04/05 08:43:11;;;;;;;19.00;17.50;;;;;;;;;;5030464;28;20433;-73
2024/04/05 08:45:38;;;;;;;17.90;16.40;;;;;;;;;;5030200;28;20447;-74
2024/04/05 08:48:05;;;;;;;17.67;16.47;;;;;;;;;;5030023;28;20453;-74
2024/04/05 08:50:35;;;;;;;17.37;16.07;;;;;;;;;;5030011;28;20511;-74
2024/04/05 08:53:01;;;;;;;17.57;16.40;;;;;;;;;;5030257;28;20460;-74
2024/04/05 08:55:28;;;;;;;17.30;16.30;;;;;;;;;;5028161;28;20487;-76
2024/04/05 08:57:55;;;;;;;17.27;16.20;;;;;;;;;;5029141;28;20489;-74
2024/04/05 09:00:23;;;;;;;17.80;16.50;;;;;;;;;;5029166;28;20449;-75
2024/04/05 09:02:51;;;;;;;16.63;15.60;;;;;;;;;;5029370;28;20435;-75
2024/04/05 09:05:19;;;;;;;19.07;17.23;;;;;;;;;;5029727;28;20444;-75
2024/04/05 09:07:46;;;;;;;18.00;16.60;;;;;;;;;;5029563;28;20457;-74
2024/04/05 09:10:14;;;;;;;17.60;16.73;;;;;;;;;;5028346;28;20469;-75
2024/04/05 09:12:47;;;;;;;18.97;17.63;;;;;;;;;;5028267;28;20497;-75
2024/04/05 09:15:17;;;;;;;19.37;17.90;;;;;;;;;;5032104;28;20441;-76
2024/04/05 09:17:45;;;;;;;18.27;17.27;;;;;;;;;;5018635;28;20456;-74
2024/04/05 09:20:16;;;;;;;18.63;17.13;;;;;;;;;;5032131;28;20858;-74
2024/04/05 09:22:43;;;;;;;17.83;16.53;;;;;;;;;;5032754;28;20482;-74
2024/04/05 09:25:12;;;;;;;18.47;17.17;;;;;;;;;;5032476;28;21205;-76
2024/04/05 09:27:38;;;;;;;18.87;17.57;;;;;;;;;;5032855;28;20929;-75
2024/04/05 09:30:08;;;;;;;18.33;17.17;;;;;;;;;;5032263;28;20451;-75
2024/04/05 09:32:35;;;;;;;17.67;16.50;;;;;;;;;;5032679;28;20553;-74
2024/04/05 09:35:03;;;;;;;18.00;16.80;;;;;;;;;;5032685;28;20852;-75
2024/04/05 09:37:29;;;;;;;16.90;15.90;;;;;;;;;;5032731;28;20451;-75
2024/04/05 09:39:56;;;;;;;18.00;16.90;;;;;;;;;;5031974;28;20506;-74
2024/04/05 09:42:24;;;;;;;18.10;16.90;;;;;;;;;;5031719;28;20489;-74
2024/04/05 09:44:55;;;;;;;18.67;17.30;;;;;;;;;;5032293;28;20782;-74
2024/04/05 09:47:22;;;;;;;18.50;17.37;;;;;;;;;;5032541;28;20518;-74
2024/04/05 09:49:49;;;;;;;18.33;17.03;;;;;;;;;;5031058;28;20453;-76
2024/04/05 09:52:20;;;;;;;18.30;17.13;;;;;;;;;;5031992;28;20574;-75
2024/04/05 09:54:48;;;;;;;18.57;17.40;;;;;;;;;;5032004;28;20485;-74
2024/04/05 09:57:16;;;;;;;18.67;17.50;;;;;;;;;;5032455;28;21220;-74
2024/04/05 09:59:46;;;;;;;17.20;15.90;;;;;;;;;;5031719;28;20460;-75
2024/04/05 10:02:12;;;;;;;18.17;17.00;;;;;;;;;;5032251;28;20527;-75
2024/04/05 10:04:40;;;;;;;17.50;16.60;;;;;;;;;;5032041;28;20476;-74
2024/04/05 10:07:06;;;;;;;18.80;17.30;;;;;;;;;;5032515;28;20567;-74
2024/04/05 10:09:35;;;;;;;17.47;16.40;;;;;;;;;;5032052;28;20446;-75
2024/04/05 10:12:11;;;;;;;17.90;16.80;;;;;;;;;;5032370;28;20470;-74
2024/04/05 10:14:38;;;;;;;17.93;16.83;;;;;;;;;;5032430;28;20496;-75
2024/04/05 10:17:09;;;;;;;18.67;17.47;;;;;;;;;;5032239;28;20457;-74
2024/04/05 10:19:37;;;;;;;18.57;17.50;;;;;;;;;;5031464;28;20493;-74
2024/04/05 10:22:04;;;;;;;19.13;17.77;;;;;;;;;;5032103;28;20834;-75
2024/04/05 10:24:31;;;;;;;18.67;17.40;;;;;;;;;;5032147;28;20435;-74
2024/04/05 10:26:58;;;;;;;19.10;17.90;;;;;;;;;;5032235;28;20424;-74
2024/04/05 10:29:26;;;;;;;19.23;18.03;;;;;;;;;;5031422;28;20458;-77
2024/04/05 10:32:00;;;;;;;19.43;18.33;;;;;;;;;;5031963;28;20995;-76
2024/04/05 10:34:28;;;;;;;18.80;17.80;;;;;;;;;;5032470;28;20464;-76
2024/04/05 10:36:55;;;;;;;18.33;17.03;;;;;;;;;;5032685;28;20806;-74
2024/04/05 10:39:22;;;;;;;18.17;16.87;;;;;;;;;;5031689;28;20809;-76
2024/04/05 10:41:48;;;;;;;19.03;17.67;;;;;;;;;;5031243;28;20478;-76
2024/04/05 10:44:15;;;;;;;19.10;17.97;;;;;;;;;;5032324;28;20503;-76
2024/04/05 10:46:44;;;;;;;18.97;17.83;;;;;;;;;;5032011;28;20458;-75
2024/04/05 10:49:12;;;;;;;18.63;17.33;;;;;;;;;;5031656;28;20925;-75
2024/04/05 10:51:39;;;;;;;18.43;17.23;;;;;;;;;;5031661;28;20998;-75
2024/04/05 10:54:10;;;;;;;19.37;18.27;;;;;;;;;;5031950;28;20811;-76
2024/04/05 10:56:39;;;;;;;19.30;18.00;;;;;;;;;;5030430;28;20860;-75
2024/04/05 10:59:07;;;;;;;18.47;17.50;;;;;;;;;;5031047;28;20464;-76
2024/04/05 11:01:35;;;;;;;19.33;18.03;;;;;;;;;;5030452;28;20548;-77
2024/04/05 11:04:02;;;;;;;20.63;19.30;;;;;;;;;;5031639;28;20503;-76
2024/04/05 11:06:28;;;;;;;20.23;19.03;;;;;;;;;;5031031;28;20929;-75
2024/04/05 11:08:56;;;;;;;20.03;18.83;;;;;;;;;;5031418;28;20464;-76
2024/04/05 11:11:23;;;;;;;20.50;19.30;;;;;;;;;;5025628;28;20481;-76
2024/04/05 11:13:49;;;;;;;19.33;18.23;;;;;;;;;;5021784;28;20901;-76
2024/04/05 11:16:17;;;;;;;19.77;18.57;;;;;;;;;;5030708;28;20497;-76
2024/04/05 11:18:45;;;;;;;19.43;18.30;;;;;;;;;;5030810;28;20454;-75
2024/04/05 11:21:14;;;;;;;19.90;18.57;;;;;;;;;;5030696;28;20448;-76
2024/04/05 11:23:48;;;;;;;20.00;18.60;;;;;;;;;;5030448;28;20428;-74
2024/04/05 11:26:20;;;;;;;20.23;18.80;;;;;;;;;;5030669;28;21072;-76
2024/04/05 11:28:47;;;;;;;19.10;17.87;;;;;;;;;;5030390;28;20865;-76
2024/04/05 11:31:14;;;;;;;19.43;18.30;;;;;;;;;;5029868;28;20477;-76
2024/04/05 11:33:41;;;;;;;19.70;18.50;;;;;;;;;;5030597;28;20488;-76
2024/04/05 11:36:07;;;;;;;18.97;17.87;;;;;;;;;;5030485;28;20455;-76
2024/04/05 11:38:34;;;;;;;19.70;18.30;;;;;;;;;;5016588;28;20553;-76
2024/04/05 11:41:00;;;;;;;21.10;19.40;;;;;;;;;;5010976;28;20518;-75
2024/04/05 11:43:29;;;;;;;21.67;20.07;;;;;;;;;;5010830;28;20484;-76
2024/04/05 11:45:55;;;;;;;20.77;19.17;;;;;;;;;;5010329;28;20449;-76
2024/04/05 11:48:23;;;;;;;19.40;18.10;;;;;;;;;;5010149;28;20788;-75
2024/04/05 11:50:50;;;;;;;18.77;17.57;;;;;;;;;;5010531;28;20482;-76
2024/04/05 11:53:17;;;;;;;18.80;17.60;;;;;;;;;;5010500;28;21188;-76
2024/04/05 11:55:43;;;;;;;19.03;17.73;;;;;;;;;;5009997;28;20889;-76
2024/04/05 11:58:11;;;;;;;19.27;18.07;;;;;;;;;;5010091;28;20483;-76
2024/04/05 12:00:39;;;;;;;18.90;17.77;;;;;;;;;;5010376;28;20898;-75
2024/04/05 12:03:06;;;;;;;18.80;17.60;;;;;;;;;;5010496;28;20458;-76
2024/04/05 12:05:33;;;;;;;20.20;18.80;;;;;;;;;;5010281;28;20445;-75
2024/04/05 12:08:00;;;;;;;20.40;19.03;;;;;;;;;;5011222;28;20521;-76
2024/04/05 12:10:26;;;;;;;19.03;17.73;;;;;;;;;;5029563;28;20956;-76
2024/04/05 12:12:53;;;;;;;18.90;17.50;;;;;;;;;;5029896;28;20532;-77
2024/04/05 12:15:19;;;;;;;18.53;17.13;;;;;;;;;;5030214;28;20545;-74
2024/04/05 12:17:49;;;;;;;18.83;17.73;;;;;;;;;;5030087;28;20427;-76
2024/04/05 12:20:15;;;;;;;18.60;17.60;;;;;;;;;;5029972;28;20825;-75
2024/04/05 12:22:42;;;;;;;19.50;18.13;;;;;;;;;;5030200;28;20560;-77
2024/04/05 12:25:08;;;;;;;19.67;18.30;;;;;;;;;;5030329;28;20442;-75
2024/04/05 12:27:36;;;;;;;17.73;16.53;;;;;;;;;;5030145;28;20450;-75
2024/04/05 12:30:02;;;;;;;18.83;17.73;;;;;;;;;;5029851;28;20507;-76
2024/04/05 12:32:29;;;;;;;18.90;17.80;;;;;;;;;;5030143;28;20575;-76
2024/04/05 12:34:57;;;;;;;19.20;18.10;;;;;;;;;;5029834;28;20484;-75
2024/04/05 12:37:27;;;;;;;19.30;17.93;;;;;;;;;;5029758;28;20458;-76
2024/04/05 12:39:54;;;;;;;18.60;17.40;;;;;;;;;;5029649;28;20453;-75
2024/04/05 12:42:22;;;;;;;19.40;18.13;;;;;;;;;;5029686;28;20473;-75
2024/04/05 12:44:48;;;;;;;18.73;17.53;;;;;;;;;;5029866;28;20441;-75
2024/04/05 12:47:15;;;;;;;18.37;17.17;;;;;;;;;;5029823;28;20446;-76
2024/04/05 12:49:42;;;;;;;17.97;16.83;;;;;;;;;;5031277;28;20453;-75
2024/04/05 12:52:10;;;;;;;18.87;17.67;;;;;;;;;;5033382;28;20530;-77
2024/04/05 12:54:37;;;;;;;19.17;17.80;;;;;;;;;;5033198;28;20492;-76
2024/04/05 12:57:04;;;;;;;18.40;17.30;;;;;;;;;;5034036;28;20455;-77
2024/04/05 12:59:30;;;;;;;19.30;18.10;;;;;;;;;;5032162;28;21054;-77
2024/04/05 13:01:57;;;;;;;19.33;18.13;;;;;;;;;;5032858;28;20463;-76
2024/04/05 13:04:23;;;;;;;20.40;18.93;;;;;;;;;;5033704;28;20419;-77
2024/04/05 13:06:50;;;;;;;19.47;18.27;;;;;;;;;;5033415;28;20539;-76
2024/04/05 13:09:18;;;;;;;19.10;18.00;;;;;;;;;;5032979;28;20453;-75
2024/04/05 13:11:45;;;;;;;19.27;18.07;;;;;;;;;;5033379;28;20539;-75
2024/04/05 13:14:11;;;;;;;19.20;18.10;;;;;;;;;;5033115;28;20467;-76
2024/04/05 13:16:38;;;;;;;18.93;17.93;;;;;;;;;;5033077;28;20439;-75
2024/04/05 13:19:04;;;;;;;18.77;17.67;;;;;;;;;;5032876;28;20432;-76
2024/04/05 13:21:32;;;;;;;18.87;17.87;;;;;;;;;;5032879;28;20977;-77
2024/04/05 13:23:58;;;;;;;19.13;18.03;;;;;;;;;;5033067;28;20944;-77
2024/04/05 13:26:26;;;;;;;20.40;19.10;;;;;;;;;;5033298;28;20507;-76
2024/04/05 13:28:53;;;;;;;20.27;18.97;;;;;;;;;;5032465;28;20424;-76
2024/04/05 13:31:21;;;;;;;20.43;18.93;;;;;;;;;;5032730;28;21042;-76
2024/04/05 13:33:47;;;;;;;19.03;18.03;;;;;;;;;;5032980;28;20478;-78
2024/04/05 13:36:15;;;;;;;18.77;17.80;;;;;;;;;;5033369;28;20457;-77
2024/04/05 13:38:42;;;;;;;19.50;18.33;;;;;;;;;;5032534;28;20510;-77
2024/04/05 13:41:09;;;;;;;19.13;17.97;;;;;;;;;;5032927;28;20504;-76
2024/04/05 13:43:37;;;;;;;19.30;18.30;;;;;;;;;;5033848;28;20455;-76
2024/04/05 13:46:08;;;;;;;19.27;18.07;;;;;;;;;;5033558;28;20454;-76
2024/04/05 13:48:34;;;;;;;19.97;18.80;;;;;;;;;;5032482;28;20446;-77
2024/04/05 13:51:01;;;;;;;20.20;19.10;;;;;;;;;;5033000;28;20604;-77
2024/04/05 13:53:28;;;;;;;19.00;17.80;;;;;;;;;;5032786;28;20457;-76
2024/04/05 13:55:55;;;;;;;18.77;17.77;;;;;;;;;;5032195;28;20478;-76
2024/04/05 13:58:21;;;;;;;19.00;17.70;;;;;;;;;;5022721;28;20489;-77
2024/04/05 14:00:49;;;;;;;18.33;17.10;;;;;;;;;;5012604;28;20462;-79
2024/04/05 14:03:15;;;;;;;17.67;16.77;;;;;;;;;;5012820;28;20495;-76
2024/04/05 14:05:42;;;;;;;17.70;16.80;;;;;;;;;;5012295;28;20442;-76
2024/04/05 14:08:08;;;;;;;18.00;16.90;;;;;;;;;;5025142;28;20489;-77
2024/04/05 14:10:35;;;;;;;17.40;16.40;;;;;;;;;;5015973;28;20467;-76
2024/04/05 14:13:03;;;;;;;17.80;16.90;;;;;;;;;;5021467;28;20467;-76
2024/04/05 14:15:30;;;;;;;18.53;17.33;;;;;;;;;;5030932;28;20538;-76